Time;durP1;ratioP1;P1;durP2;ratioP2;P2;SDS_P1;SDS_P2;PMS_P1;PMS_P2;Temp;Humidity;BMP_temperature;BMP_pressure;BME280_temperature;BME280_humidity;BME280_pressure;Samples;Min_cycle;Max_cycle;Signal;HPM_P1;HPM_P2
2021/08/04 00:01:43;;;;;;;;;8.75;7.75;;;;;18.78;64.82;100996.03;5060581;28;45341;-68
2021/08/04 00:04:10;;;;;;;;;9.25;8.25;;;;;18.75;64.94;100991.78;5060837;28;45335;-66
2021/08/04 00:06:36;;;;;;;;;9.75;9.00;;;;;18.75;65.02;101001.47;5060708;28;45268;-66
2021/08/04 00:09:02;;;;;;;;;7.75;6.50;;;;;18.74;65.42;101005.03;5061049;28;45337;-66
2021/08/04 00:11:28;;;;;;;;;8.50;8.25;;;;;18.71;65.32;100999.94;5060580;28;45162;-68
2021/08/04 00:13:53;;;;;;;;;12.00;9.75;;;;;18.69;65.35;100997.41;5060423;28;45421;-67
2021/08/04 00:16:18;;;;;;;;;14.25;10.75;;;;;18.68;65.49;101002.75;5060391;28;45228;-68
2021/08/04 00:18:44;;;;;;;;;10.25;9.50;;;;;18.65;65.56;101002.94;5058078;28;45400;-66
2021/08/04 00:21:09;;;;;;;;;11.75;9.00;;;;;18.62;65.62;101003.94;5059226;28;45516;-66
2021/08/04 00:23:34;;;;;;;;;9.25;8.75;;;;;18.63;65.94;101012.72;5051148;28;45238;-67
2021/08/04 00:26:00;;;;;;;;;11.75;8.50;;;;;18.61;65.75;101004.00;5052054;28;45602;-68
2021/08/04 00:28:25;;;;;;;;;11.25;10.00;;;;;18.61;65.94;101001.34;5050850;28;45223;-66
2021/08/04 00:30:51;;;;;;;;;9.75;9.25;;;;;18.61;66.04;101004.84;5053870;28;45527;-66
2021/08/04 00:33:16;;;;;;;;;11.75;10.00;;;;;18.60;66.10;101002.31;5050379;28;46266;-67
2021/08/04 00:35:42;;;;;;;;;9.75;9.75;;;;;18.58;66.03;101001.53;5054561;28;45442;-66
2021/08/04 00:38:11;;;;;;;;;9.75;9.25;;;;;18.54;66.21;100996.44;5051539;28;45512;-67
2021/08/04 00:40:38;;;;;;;;;14.50;9.75;;;;;18.54;65.80;100998.25;5053376;28;45599;-67
2021/08/04 00:43:04;;;;;;;;;7.00;6.75;;;;;18.53;66.09;100996.53;5051807;28;47373;-66
2021/08/04 00:45:30;;;;;;;;;12.25;10.25;;;;;18.51;66.33;100998.41;5051305;28;45453;-68
2021/08/04 00:47:55;;;;;;;;;7.50;7.25;;;;;18.51;66.09;100995.78;5055867;28;45398;-67
2021/08/04 00:50:21;;;;;;;;;8.75;8.75;;;;;18.50;66.43;100999.34;5060148;28;45472;-68
2021/08/04 00:52:46;;;;;;;;;8.00;7.00;;;;;18.47;66.35;100989.84;5059923;28;46276;-69
2021/08/04 00:55:12;;;;;;;;;8.25;8.25;;;;;18.46;66.11;100990.78;5059963;28;45309;-68
2021/08/04 00:57:37;;;;;;;;;11.25;8.75;;;;;18.46;66.14;100987.31;5060329;28;45294;-69
2021/08/04 01:00:05;;;;;;;;;10.00;9.00;;;;;18.45;66.42;100986.47;5059609;28;45294;-69
2021/08/04 01:02:33;;;;;;;;;8.00;8.00;;;;;18.45;66.20;100977.72;5060041;28;46754;-69
2021/08/04 01:05:05;;;;;;;;;10.00;8.75;;;;;18.44;66.30;100976.03;5059824;28;45252;-65
2021/08/04 01:07:36;;;;;;;;;10.00;8.00;;;;;18.43;66.19;100969.91;5060198;28;45291;-65
2021/08/04 01:10:05;;;;;;;;;10.25;8.25;;;;;18.41;66.66;100966.50;5059813;28;45426;-64
2021/08/04 01:12:37;;;;;;;;;12.25;9.75;;;;;18.42;66.79;100965.59;5059754;28;45346;-65
2021/08/04 01:15:05;;;;;;;;;9.00;9.00;;;;;18.41;67.05;100979.66;5060273;28;45367;-64
2021/08/04 01:17:31;;;;;;;;;11.00;9.00;;;;;18.41;66.75;100977.00;5060226;28;45361;-64
2021/08/04 01:20:05;;;;;;;;;10.00;9.00;;;;;18.39;66.81;100973.63;5059822;28;45161;-64
2021/08/04 01:22:52;;;;;;;;;10.50;10.00;;;;;18.37;66.90;100978.13;5059473;28;46271;-64
2021/08/04 01:25:20;;;;;;;;;11.50;9.00;;;;;18.35;67.49;100977.38;5060339;28;45224;-65
2021/08/04 01:27:50;;;;;;;;;10.00;10.00;;;;;18.34;67.24;100967.78;5059758;28;45405;-64
2021/08/04 01:30:16;;;;;;;;;13.25;10.75;;;;;18.33;67.32;100971.34;5059606;28;45519;-67
2021/08/04 01:32:41;;;;;;;;;8.75;8.75;;;;;18.31;67.47;100967.97;5058869;28;46363;-67
2021/08/04 01:35:08;;;;;;;;;11.25;10.25;;;;;18.31;67.65;100967.97;5059451;28;45341;-67
2021/08/04 01:37:35;;;;;;;;;12.00;12.00;;;;;18.28;67.80;100965.50;5059689;28;45214;-66
2021/08/04 01:40:02;;;;;;;;;12.75;10.25;;;;;18.28;68.13;100962.88;5059648;28;45478;-67
2021/08/04 01:42:33;;;;;;;;;11.50;10.00;;;;;18.27;68.75;100958.53;5058179;28;46270;-67
2021/08/04 01:45:00;;;;;;;;;10.50;10.25;;;;;18.22;69.30;100952.69;5056187;28;45951;-67
2021/08/04 01:47:25;;;;;;;;;12.00;11.25;;;;;18.19;69.67;100955.47;5059258;28;45486;-67
2021/08/04 01:49:51;;;;;;;;;12.25;9.50;;;;;18.18;70.13;100957.25;5059704;28;45319;-67
2021/08/04 01:52:17;;;;;;;;;13.75;10.75;;;;;18.19;70.11;100958.09;5057801;28;46194;-67
2021/08/04 01:54:44;;;;;;;;;16.25;11.25;;;;;18.18;69.97;100954.63;5057293;28;45334;-66
2021/08/04 01:57:09;;;;;;;;;16.00;13.25;;;;;18.17;70.38;100958.19;5059248;28;45314;-66
2021/08/04 01:59:35;;;;;;;;;14.25;12.50;;;;;18.20;70.44;100959.81;5059010;28;45354;-66
2021/08/04 02:02:29;;;;;;;;;15.25;11.75;;;;;18.19;71.11;100958.94;5058928;28;46552;-66
2021/08/04 02:04:55;;;;;;;;;11.00;11.00;;;;;18.17;71.18;100949.44;5050055;28;45472;-66
2021/08/04 02:07:36;;;;;;;;;13.75;11.50;;;;;18.15;71.34;100951.31;5059319;28;45602;-66
2021/08/04 02:10:06;;;;;;;;;10.75;9.75;;;;;18.13;71.49;100951.41;5058595;28;45401;-66
2021/08/04 02:12:39;;;;;;;;;13.00;12.00;;;;;18.11;71.62;100952.44;5059100;28;46571;-66
2021/08/04 02:15:10;;;;;;;;;17.75;14.75;;;;;18.09;71.45;100951.66;5062047;28;45319;-66
2021/08/04 02:17:44;;;;;;;;;14.25;12.75;;;;;18.07;71.62;100946.50;5061705;28;45521;-66
2021/08/04 02:20:34;;;;;;;;;15.50;12.50;;;;;18.06;71.51;100949.22;5060573;28;45393;-66
2021/08/04 02:23:03;;;;;;;;;16.25;14.50;;;;;18.01;71.66;100949.44;5049421;28;47153;-66
2021/08/04 02:25:40;;;;;;;;;14.25;13.75;;;;;17.96;72.25;100948.84;5061634;28;45235;-67
2021/08/04 02:28:11;;;;;;;;;17.25;14.75;;;;;17.88;72.54;100949.28;5062209;28;45309;-68
2021/08/04 02:30:39;;;;;;;;;13.00;13.00;;;;;17.81;73.08;100942.66;5061317;28;45239;-68
2021/08/04 02:33:05;;;;;;;;;15.00;11.75;;;;;17.79;73.02;100935.78;5061778;28;47085;-67
2021/08/04 02:35:31;;;;;;;;;17.00;13.50;;;;;17.74;73.68;100928.16;5061659;28;45162;-67
2021/08/04 02:37:56;;;;;;;;;15.50;13.00;;;;;17.73;73.36;100929.06;5062214;28;45373;-67
2021/08/04 02:40:21;;;;;;;;;14.75;11.75;;;;;17.73;73.55;100929.06;5061750;28;45281;-68
2021/08/04 02:42:48;;;;;;;;;14.50;14.00;;;;;17.72;73.72;100930.00;5062142;28;45734;-68
2021/08/04 02:45:14;;;;;;;;;15.25;14.00;;;;;17.68;73.40;100922.38;5061007;28;45298;-68
2021/08/04 02:47:41;;;;;;;;;13.00;11.25;;;;;17.67;73.26;100920.66;5062302;28;45359;-68
2021/08/04 02:50:08;;;;;;;;;18.75;17.00;;;;;17.68;73.15;100922.38;5061949;28;45224;-68
2021/08/04 02:52:35;;;;;;;;;16.50;15.25;;;;;17.64;73.30;100924.31;5062129;28;45971;-64
2021/08/04 02:55:01;;;;;;;;;14.75;13.25;;;;;17.61;73.66;100917.41;5061744;28;45820;-64
2021/08/04 02:57:27;;;;;;;;;16.00;12.50;;;;;17.61;73.49;100925.28;5062240;28;45408;-65
2021/08/04 02:59:52;;;;;;;;;17.00;15.00;;;;;17.61;73.53;100921.81;5061572;28;45398;-67
2021/08/04 03:02:18;;;;;;;;;17.50;13.25;;;;;17.61;73.50;100921.81;5061830;28;46436;-68
2021/08/04 03:04:43;;;;;;;;;15.75;15.75;;;;;17.60;73.58;100920.13;5061842;28;45330;-68
2021/08/04 03:07:09;;;;;;;;;15.25;13.25;;;;;17.56;73.34;100918.59;5061987;28;45232;-68
2021/08/04 03:09:34;;;;;;;;;20.50;13.25;;;;;17.54;73.26;100917.81;5061093;28;45421;-68
2021/08/04 03:11:59;;;;;;;;;16.00;15.00;;;;;17.46;73.27;100914.78;5061538;28;45391;-69
2021/08/04 03:14:25;;;;;;;;;20.75;15.25;;;;;17.46;73.60;100920.88;5060059;28;45417;-68
2021/08/04 03:16:50;;;;;;;;;13.25;12.25;;;;;17.42;73.48;100919.34;5059291;28;45607;-68
2021/08/04 03:19:16;;;;;;;;;15.75;13.50;;;;;17.42;73.74;100918.47;5060494;28;45390;-69
2021/08/04 03:21:42;;;;;;;;;16.00;15.25;;;;;17.40;73.77;100918.56;5061026;28;45348;-69
2021/08/04 03:24:07;;;;;;;;;16.75;13.50;;;;;17.37;73.89;100921.34;5060205;28;45751;-68
2021/08/04 03:26:34;;;;;;;;;16.25;15.00;;;;;17.34;73.83;100918.88;5061099;28;45227;-69
2021/08/04 03:28:59;;;;;;;;;14.25;12.75;;;;;17.34;74.05;100924.97;5060062;28;45497;-69
2021/08/04 03:31:25;;;;;;;;;18.50;14.75;;;;;17.32;73.84;100911.09;5053028;28;46083;-69
2021/08/04 03:33:50;;;;;;;;;18.00;15.75;;;;;17.29;74.25;100903.38;5051281;28;45212;-69
2021/08/04 03:36:15;;;;;;;;;16.75;14.00;;;;;17.28;74.21;100904.31;5054967;28;45283;-69
2021/08/04 03:38:41;;;;;;;;;16.00;15.75;;;;;17.28;74.60;100893.78;5060160;28;45215;-69
2021/08/04 03:41:07;;;;;;;;;14.50;14.25;;;;;17.22;74.43;100888.88;5055647;28;45354;-69
2021/08/04 03:43:32;;;;;;;;;16.00;14.75;;;;;17.25;74.48;100893.13;5060819;28;45243;-69
2021/08/04 03:45:57;;;;;;;;;16.00;14.50;;;;;17.25;74.49;100888.72;5060071;28;45376;-69
2021/08/04 03:48:23;;;;;;;;;21.25;16.50;;;;;17.26;74.33;100890.41;5060913;28;45398;-69
2021/08/04 03:50:48;;;;;;;;;17.50;17.25;;;;;17.26;74.48;100893.03;5061223;28;45348;-69
2021/08/04 03:53:13;;;;;;;;;16.00;14.50;;;;;17.26;74.53;100900.06;5060870;28;45461;-69
2021/08/04 03:55:39;;;;;;;;;18.25;17.00;;;;;17.25;74.60;100901.84;5061267;28;45336;-69
2021/08/04 03:58:04;;;;;;;;;18.00;15.50;;;;;17.25;74.61;100907.09;5060898;28;45435;-69
2021/08/04 04:00:29;;;;;;;;;19.25;18.00;;;;;17.24;74.90;100901.91;5060725;28;46127;-69
2021/08/04 04:02:55;;;;;;;;;15.00;11.00;;;;;17.23;74.69;100905.47;5060474;28;45254;-69
2021/08/04 04:05:20;;;;;;;;;17.25;13.50;;;;;17.22;75.05;100923.03;5061164;28;45460;-69
2021/08/04 04:07:45;;;;;;;;;17.50;14.25;;;;;17.19;75.07;100920.53;5060588;28;45509;-68
2021/08/04 04:10:11;;;;;;;;;17.00;15.75;;;;;17.14;75.16;100919.91;5060250;28;46245;-68
2021/08/04 04:12:36;;;;;;;;;19.00;17.25;;;;;17.10;74.98;100928.03;5060438;28;45218;-68
2021/08/04 04:15:03;;;;;;;;;18.75;15.75;;;;;17.05;75.48;100923.03;5059958;28;45460;-69
2021/08/04 04:17:29;;;;;;;;;16.25;15.25;;;;;17.02;75.82;100918.78;5059807;28;45496;-68
2021/08/04 04:19:54;;;;;;;;;15.50;13.75;;;;;16.98;75.72;100914.59;5060668;28;45318;-66
2021/08/04 04:22:21;;;;;;;;;16.50;14.25;;;;;16.98;76.02;100921.63;5060462;28;45936;-68
2021/08/04 04:24:46;;;;;;;;;20.00;16.00;;;;;16.98;76.19;100921.63;5061018;28;45659;-69
2021/08/04 04:27:12;;;;;;;;;20.00;15.75;;;;;16.99;76.13;100912.81;5060291;28;45584;-68
2021/08/04 04:29:38;;;;;;;;;21.75;17.50;;;;;17.05;76.32;100919.56;5060349;28;45279;-68
2021/08/04 04:32:08;;;;;;;;;19.75;17.75;;;;;17.06;76.06;100908.97;5059964;28;45928;-69
2021/08/04 04:34:33;;;;;;;;;18.75;17.75;;;;;17.10;76.19;100905.25;5060144;28;45229;-69
2021/08/04 04:36:58;;;;;;;;;19.25;18.25;;;;;17.13;76.15;100897.22;5059464;28;45219;-68
2021/08/04 04:39:24;;;;;;;;;13.00;10.75;;;;;17.15;75.96;100900.59;5060361;28;45421;-68
2021/08/04 04:41:49;;;;;;;;;21.50;15.75;;;;;17.16;75.82;100894.44;5061478;28;45473;-68
2021/08/04 04:44:14;;;;;;;;;17.00;16.00;;;;;17.16;76.05;100904.94;5069487;28;45326;-68
2021/08/04 04:46:40;;;;;;;;;19.25;18.00;;;;;17.13;75.82;100899.84;5059603;28;45417;-68
2021/08/04 04:49:05;;;;;;;;;12.50;12.25;;;;;17.13;75.96;100899.00;5059992;28;45317;-69
2021/08/04 04:51:30;;;;;;;;;20.50;17.50;;;;;17.12;76.04;100903.41;5059940;28;45215;-68
2021/08/04 04:53:56;;;;;;;;;17.75;15.50;;;;;17.07;76.24;100900.16;5060000;28;45787;-68
2021/08/04 04:56:21;;;;;;;;;18.50;17.25;;;;;17.07;76.22;100901.94;5059837;28;45722;-68
2021/08/04 04:58:47;;;;;;;;;15.75;15.25;;;;;17.08;76.31;100901.88;5059636;28;46259;-70
2021/08/04 05:01:12;;;;;;;;;20.00;17.00;;;;;17.09;76.44;100900.94;5059439;28;45341;-69
2021/08/04 05:03:37;;;;;;;;;38.25;23.75;;;;;17.14;76.45;100912.03;5058697;28;45357;-70
2021/08/04 05:06:03;;;;;;;;;22.75;20.00;;;;;17.18;76.24;100902.22;5059719;28;45252;-69
2021/08/04 05:08:28;;;;;;;;;17.75;14.75;;;;;17.23;76.30;100908.94;5047449;28;45354;-70
2021/08/04 05:10:53;;;;;;;;;19.50;14.75;;;;;17.26;75.99;100910.56;5055643;28;45673;-68
2021/08/04 05:13:19;;;;;;;;;17.00;16.00;;;;;17.33;75.91;100910.16;5056901;28;45377;-69
2021/08/04 05:15:44;;;;;;;;;20.50;17.25;;;;;17.36;75.76;100917.03;5055640;28;45517;-69
2021/08/04 05:18:10;;;;;;;;;22.75;16.50;;;;;17.39;75.61;100921.25;5056674;28;45640;-69
2021/08/04 05:20:35;;;;;;;;;22.00;17.00;;;;;17.45;75.76;100926.22;5055936;28;45752;-69
2021/08/04 05:23:00;;;;;;;;;20.75;16.75;;;;;17.45;75.43;100932.31;5055409;28;45389;-69
2021/08/04 05:25:27;;;;;;;;;23.00;16.50;;;;;17.47;75.71;100938.34;5056415;28;45506;-69
2021/08/04 05:27:52;;;;;;;;;16.00;15.75;;;;;17.45;75.26;100931.47;5058920;28;46120;-69
2021/08/04 05:30:18;;;;;;;;;19.00;16.75;;;;;17.45;75.43;100928.84;5058153;28;45195;-68
2021/08/04 05:32:43;;;;;;;;;16.75;16.25;;;;;17.50;75.36;100919.78;5058637;28;45284;-68
2021/08/04 05:35:09;;;;;;;;;16.75;16.00;;;;;17.52;75.01;100922.31;5058505;28;45354;-68
2021/08/04 05:37:34;;;;;;;;;20.50;17.50;;;;;17.48;75.30;100931.31;5058915;28;45233;-68
2021/08/04 05:40:00;;;;;;;;;19.75;17.25;;;;;17.43;75.34;100925.44;5058040;28;45623;-69
2021/08/04 05:42:25;;;;;;;;;21.50;19.00;;;;;17.46;75.47;100933.16;5065505;28;45485;-68
2021/08/04 05:44:50;;;;;;;;;17.50;15.50;;;;;17.49;75.42;100925.13;5062553;28;45456;-68
2021/08/04 05:47:16;;;;;;;;;19.50;18.00;;;;;17.52;75.46;100933.69;5059017;28;46263;-69
2021/08/04 05:49:42;;;;;;;;;18.25;17.25;;;;;17.53;75.54;100932.75;5062835;28;45287;-68
2021/08/04 05:52:08;;;;;;;;;17.75;17.75;;;;;17.55;75.51;100932.66;5062776;28;45396;-68
2021/08/04 05:54:33;;;;;;;;;20.00;16.25;;;;;17.59;75.60;100934.19;5062644;28;45437;-68
2021/08/04 05:56:58;;;;;;;;;21.50;17.25;;;;;17.70;75.31;100936.28;5062425;28;45394;-68
2021/08/04 05:59:24;;;;;;;;;18.25;15.75;;;;;17.76;74.95;100933.31;5062529;28;45267;-67
2021/08/04 06:01:49;;;;;;;;;20.50;18.25;;;;;17.86;75.00;100939.78;5062432;28;45325;-72
2021/08/04 06:04:14;;;;;;;;;24.75;17.00;;;;;18.02;74.61;100942.41;5062554;28;45382;-70
2021/08/04 06:06:40;;;;;;;;;27.25;20.50;;;;;18.17;74.19;100934.50;5062057;28;46455;-70
2021/08/04 06:09:06;;;;;;;;;19.00;18.00;;;;;18.30;73.82;100936.47;5061257;28;45348;-72
2021/08/04 06:11:32;;;;;;;;;24.25;17.50;;;;;18.41;72.54;100931.44;5062448;28;45366;-68
2021/08/04 06:13:57;;;;;;;;;24.00;22.00;;;;;18.46;73.08;100939.94;5060407;28;45503;-68
2021/08/04 06:16:22;;;;;;;;;20.50;15.50;;;;;18.50;73.14;100931.78;5062714;28;45297;-69
2021/08/04 06:18:47;;;;;;;;;19.00;17.75;;;;;18.58;72.33;100939.22;5059708;28;45194;-68
2021/08/04 06:21:13;;;;;;;;;18.75;16.50;;;;;18.63;72.05;100939.00;5062386;28;45225;-65
2021/08/04 06:23:38;;;;;;;;;25.75;20.75;;;;;18.66;71.73;100929.13;5062122;28;45391;-69
2021/08/04 06:26:03;;;;;;;;;26.75;23.25;;;;;18.69;72.02;100928.97;5061829;28;45898;-66
2021/08/04 06:28:29;;;;;;;;;20.75;18.75;;;;;18.76;71.49;100925.03;5062083;28;45203;-68
2021/08/04 06:30:54;;;;;;;;;19.25;18.00;;;;;18.80;71.16;100920.41;5061874;28;45254;-72
2021/08/04 06:33:19;;;;;;;;;22.00;18.00;;;;;18.91;71.04;100927.69;5060621;28;45436;-68
2021/08/04 06:35:45;;;;;;;;;18.00;17.00;;;;;19.00;70.07;100922.72;5061829;28;45346;-67
2021/08/04 06:38:10;;;;;;;;;19.50;17.25;;;;;19.10;70.52;100929.16;5061853;28;45279;-64
2021/08/04 06:40:36;;;;;;;;;24.25;21.00;;;;;19.18;70.22;100915.50;5061976;28;45253;-70
2021/08/04 06:43:01;;;;;;;;;54.75;39.25;;;;;19.31;69.17;100937.53;5061844;28;45433;-68
2021/08/04 06:45:26;;;;;;;;;21.75;20.25;;;;;19.36;69.13;100935.47;5062054;28;46122;-70
2021/08/04 06:47:52;;;;;;;;;21.50;19.50;;;;;19.44;68.83;100929.75;5060513;28;45326;-69
2021/08/04 06:50:17;;;;;;;;;25.75;18.00;;;;;19.50;68.59;100931.16;5061637;28;45213;-67
2021/08/04 06:52:42;;;;;;;;;44.00;30.00;;;;;19.61;67.24;100932.19;5061620;28;45594;-67
2021/08/04 06:55:09;;;;;;;;;22.00;20.25;;;;;19.70;67.83;100931.66;5061629;28;45312;-67
2021/08/04 06:57:34;;;;;;;;;22.50;18.75;;;;;19.79;67.71;100924.94;5061613;28;45428;-67
2021/08/04 06:59:59;;;;;;;;;20.50;20.00;;;;;19.85;67.10;100929.00;5060995;28;45422;-68
2021/08/04 07:02:25;;;;;;;;;22.50;19.00;;;;;19.92;66.96;100932.94;5061390;28;45302;-65
2021/08/04 07:04:50;;;;;;;;;22.25;19.50;;;;;20.01;66.69;100932.34;5061488;28;45382;-69
2021/08/04 07:07:16;;;;;;;;;21.75;19.50;;;;;20.16;66.70;100928.72;5060676;28;45307;-65
2021/08/04 07:09:42;;;;;;;;;20.25;17.50;;;;;20.18;65.85;100936.53;5060674;28;45362;-67
2021/08/04 07:12:11;;;;;;;;;23.25;15.50;;;;;20.15;65.57;100934.09;5061516;28;45453;-70
2021/08/04 07:14:37;;;;;;;;;18.50;18.25;;;;;20.14;65.13;100933.25;5060020;28;46184;-68
2021/08/04 07:17:03;;;;;;;;;18.25;17.75;;;;;20.18;64.46;100936.53;5060803;28;45617;-70
2021/08/04 07:19:29;;;;;;;;;20.50;18.00;;;;;20.31;64.56;100934.81;5060928;28;45266;-66
2021/08/04 07:21:54;;;;;;;;;20.75;19.50;;;;;20.46;64.23;100933.00;5059517;28;45427;-68
2021/08/04 07:24:19;;;;;;;;;19.75;16.50;;;;;20.63;64.09;100928.31;5060543;28;46102;-66
2021/08/04 07:26:45;;;;;;;;;16.50;15.25;;;;;20.74;62.76;100940.78;5060814;28;45245;-69
2021/08/04 07:29:11;;;;;;;;;19.00;16.50;;;;;20.68;62.49;100933.28;5060481;28;45385;-66
2021/08/04 07:31:37;;;;;;;;;18.00;17.50;;;;;20.65;62.58;100933.47;5060615;28;45498;-67
2021/08/04 07:34:03;;;;;;;;;19.50;15.75;;;;;20.78;62.12;100930.84;5060066;28;45260;-70
2021/08/04 07:36:28;;;;;;;;;13.75;11.75;;;;;20.91;61.58;100940.50;5061247;28;45249;-71
2021/08/04 07:38:54;;;;;;;;;12.00;10.50;;;;;20.96;60.49;100935.75;5060150;28;45219;-72
2021/08/04 07:41:20;;;;;;;;;18.00;15.50;;;;;21.04;60.34;100924.66;5060545;28;45410;-67
2021/08/04 07:43:45;;;;;;;;;18.00;15.50;;;;;21.15;59.60;100921.28;5060321;28;46169;-64
2021/08/04 07:46:12;;;;;;;;;16.50;15.00;;;;;21.30;59.80;100933.47;5060097;28;45211;-64
2021/08/04 07:48:37;;;;;;;;;16.50;14.25;;;;;21.48;59.65;100934.84;5060921;28;45503;-64
2021/08/04 07:51:04;;;;;;;;;13.00;11.50;;;;;21.68;58.06;100929.97;5060913;28;45243;-64
2021/08/04 07:53:29;;;;;;;;;13.25;11.25;;;;;21.75;57.61;100932.03;5060396;28;46378;-65
2021/08/04 07:55:55;;;;;;;;;14.25;12.75;;;;;21.80;56.64;100934.34;5061278;28;45496;-71
2021/08/04 07:58:21;;;;;;;;;17.00;13.75;;;;;21.81;57.60;100936.91;5060694;28;45279;-65
2021/08/04 08:00:46;;;;;;;;;13.50;12.75;;;;;21.85;57.01;100927.81;5060700;28;45550;-67
2021/08/04 08:03:12;;;;;;;;;14.25;11.00;;;;;21.96;56.61;100934.97;5060323;28;45349;-69
2021/08/04 08:05:37;;;;;;;;;38.25;24.25;;;;;22.00;55.88;100940.88;5060967;28;45169;-66
2021/08/04 08:08:04;;;;;;;;;10.50;8.25;;;;;21.97;55.21;100941.09;5059798;28;45167;-69
2021/08/04 08:10:31;;;;;;;;;11.00;8.75;;;;;21.96;54.70;100939.41;5049930;28;45321;-72
2021/08/04 08:12:57;;;;;;;;;16.75;10.25;;;;;21.91;54.05;100933.59;5058536;28;45736;-73
2021/08/04 08:15:23;;;;;;;;;9.50;7.75;;;;;21.84;53.21;100928.75;5059817;28;45647;-73
2021/08/04 08:17:49;;;;;;;;;10.00;9.00;;;;;21.65;53.12;100935.47;5059119;28;45472;-73
2021/08/04 08:20:14;;;;;;;;;9.00;9.00;;;;;21.52;53.28;100938.13;5059774;28;45278;-74
2021/08/04 08:22:40;;;;;;;;;10.75;9.50;;;;;21.46;53.47;100934.13;5058993;28;45543;-71
2021/08/04 08:25:06;;;;;;;;;7.75;7.75;;;;;21.49;53.01;100933.91;5058996;28;45396;-71
2021/08/04 08:27:32;;;;;;;;;9.50;7.25;;;;;21.56;53.07;100929.84;5054288;28;45302;-68
2021/08/04 08:29:58;;;;;;;;;9.00;9.00;;;;;21.74;53.62;100927.72;5059513;28;45501;-66
2021/08/04 08:32:26;;;;;;;;;8.00;7.00;;;;;21.89;53.17;100928.44;5059317;28;45456;-67
2021/08/04 08:34:52;;;;;;;;;8.75;8.75;;;;;22.04;51.98;100927.38;5058529;28;45687;-70
2021/08/04 08:37:18;;;;;;;;;12.75;9.25;;;;;22.12;52.03;100921.50;5058143;28;45622;-72
2021/08/04 08:39:43;;;;;;;;;7.25;6.75;;;;;22.28;51.78;100934.47;5060121;28;45334;-72
2021/08/04 08:42:09;;;;;;;;;7.00;7.00;;;;;22.25;50.88;100924.94;5062894;28;45988;-73
2021/08/04 08:44:34;;;;;;;;;9.25;7.25;;;;;22.12;51.55;100927.63;5066353;28;45369;-79
2021/08/04 08:47:06;;;;;;;;;8.50;8.00;;;;;22.19;50.94;100935.97;5059240;28;45288;-76
2021/08/04 08:49:32;;;;;;;;;8.75;6.75;;;;;22.38;50.93;100936.31;5060134;28;45254;-74
2021/08/04 08:51:58;;;;;;;;;8.50;7.75;;;;;22.44;50.49;100924.44;5059887;28;46464;-67
2021/08/04 08:54:26;;;;;;;;;8.00;6.00;;;;;22.53;48.88;100922.91;5059816;28;45524;-67
2021/08/04 08:56:51;;;;;;;;;9.50;9.50;;;;;22.56;48.86;100922.66;5060293;28;45273;-65
2021/08/04 08:59:17;;;;;;;;;8.75;7.75;;;;;22.62;49.10;100925.69;5059789;28;45186;-67
2021/08/04 09:01:43;;;;;;;;;15.25;12.00;;;;;22.71;48.47;100921.53;5059496;28;45289;-68
2021/08/04 09:04:10;;;;;;;;;5.75;5.75;;;;;22.71;48.34;100924.19;5060075;28;45538;-65
2021/08/04 09:06:49;;;;;;;;;14.50;13.50;;;;;22.72;47.01;100917.91;5059723;28;45419;-65
2021/08/04 09:09:18;;;;;;;;;13.75;13.75;;;;;22.65;46.42;100925.50;5050521;28;45451;-69
2021/08/04 09:11:45;;;;;;;;;17.00;10.00;;;;;22.63;48.19;100913.31;5052922;28;47133;-67
2021/08/04 09:14:11;;;;;;;;;7.00;7.00;;;;;22.93;47.63;100926.06;5050789;28;45302;-67
2021/08/04 09:16:39;;;;;;;;;5.50;5.50;;;;;23.08;47.65;100919.59;5058993;28;45920;-65
2021/08/04 09:19:19;;;;;;;;;18.00;11.50;;;;;23.44;47.34;100923.03;5054332;28;45803;-65
2021/08/04 09:21:44;;;;;;;;;8.25;7.50;;;;;23.77;45.14;100920.38;5058262;28;45537;-65
2021/08/04 09:24:10;;;;;;;;;10.00;8.00;;;;;24.01;44.93;100924.66;5063918;28;45370;-65
2021/08/04 09:26:39;;;;;;;;;6.00;6.00;;;;;24.28;45.27;100922.44;5064342;28;45148;-67
2021/08/04 09:29:06;;;;;;;;;16.00;10.25;;;;;24.57;44.26;100923.53;5065429;28;45567;-64
2021/08/04 09:31:41;;;;;;;;;7.50;6.50;;;;;24.77;43.94;100916.56;5065433;28;46398;-63
2021/08/04 09:34:34;;;;;;;;;6.75;6.75;;;;;24.93;43.70;100912.63;5065768;28;45310;-64
2021/08/04 09:37:11;;;;;;;;;6.50;5.50;;;;;25.20;43.17;100912.94;5063875;28;45520;-63
2021/08/04 09:39:39;;;;;;;;;10.25;8.00;;;;;25.33;43.30;100916.22;5065373;28;45683;-63
2021/08/04 09:42:05;;;;;;;;;5.00;4.75;;;;;25.41;40.98;100904.91;5065808;28;46102;-63
2021/08/04 09:44:32;;;;;;;;;5.50;4.50;;;;;25.57;38.99;100907.09;5065806;28;45282;-65
2021/08/04 09:47:12;;;;;;;;;8.00;4.50;;;;;25.62;38.14;100910.19;5065697;28;45369;-63
2021/08/04 09:49:41;;;;;;;;;8.00;7.00;;;;;25.60;43.94;100904.16;5063848;28;45463;-61
2021/08/04 09:52:09;;;;;;;;;8.00;6.25;;;;;25.65;40.12;100897.47;5064376;28;47037;-67
2021/08/04 09:54:36;;;;;;;;;6.00;5.00;;;;;25.69;40.85;100890.91;5065628;28;45310;-67
2021/08/04 09:57:02;;;;;;;;;9.00;5.50;;;;;25.70;39.25;100889.09;5065606;28;45188;-67
2021/08/04 09:59:27;;;;;;;;;8.00;8.00;;;;;25.72;40.27;100890.63;5065202;28;45429;-67
2021/08/04 10:01:52;;;;;;;;;6.25;5.25;;;;;25.75;40.53;100878.88;5065144;28;46209;-67
2021/08/04 10:04:18;;;;;;;;;11.00;5.50;;;;;25.76;39.73;100897.38;5065945;28;45263;-63
2021/08/04 10:06:47;;;;;;;;;9.00;6.00;;;;;25.70;39.43;100884.63;5062156;28;45243;-65
2021/08/04 10:09:15;;;;;;;;;7.00;7.00;;;;;25.53;40.17;100887.88;5059126;28;45566;-65
2021/08/04 10:11:43;;;;;;;;;8.50;6.25;;;;;25.39;39.97;100883.75;5059663;28;46485;-65
2021/08/04 10:14:13;;;;;;;;;5.25;5.25;;;;;25.30;40.11;100876.59;5056878;28;45243;-65
2021/08/04 10:16:39;;;;;;;;;6.00;6.00;;;;;25.42;40.11;100880.00;5065372;28;45525;-64
2021/08/04 10:19:06;;;;;;;;;5.25;5.00;;;;;25.48;41.57;100884.78;5064987;28;45479;-72
2021/08/04 10:21:36;;;;;;;;;8.75;4.75;;;;;25.47;40.64;100885.78;5058693;28;46979;-72
2021/08/04 10:24:03;;;;;;;;;9.50;7.25;;;;;25.55;41.90;100877.09;5055704;28;45248;-63
2021/08/04 10:26:30;;;;;;;;;6.25;4.75;;;;;25.77;39.03;100879.56;5058114;28;45300;-62
2021/08/04 10:28:57;;;;;;;;;6.25;6.25;;;;;25.84;40.14;100872.75;5063553;28;45340;-62
2021/08/04 10:31:23;;;;;;;;;8.25;6.00;;;;;25.95;40.09;100879.75;5064939;28;46088;-63
2021/08/04 10:33:49;;;;;;;;;5.50;4.75;;;;;26.00;39.19;100885.50;5063116;28;45589;-63
2021/08/04 10:36:18;;;;;;;;;9.50;8.75;;;;;26.03;39.60;100877.25;5061975;28;45208;-74
2021/08/04 10:38:54;;;;;;;;;6.00;6.00;;;;;25.95;38.79;100874.44;5061231;28;45341;-70
2021/08/04 10:41:21;;;;;;;;;7.00;7.00;;;;;25.77;38.87;100874.25;5061773;28;45934;-65
2021/08/04 10:43:55;;;;;;;;;7.25;7.25;;;;;25.71;39.81;100878.31;5061221;28;45230;-63
2021/08/04 10:46:29;;;;;;;;;6.50;6.50;;;;;25.68;39.16;100878.59;5061550;28;45375;-71
2021/08/04 10:48:55;;;;;;;;;8.75;7.00;;;;;25.65;39.29;100880.66;5059588;28;45502;-66
2021/08/04 10:51:20;;;;;;;;;9.33;8.00;;;;;25.67;38.87;100881.34;5061958;28;45453;-63
2021/08/04 10:54:00;;;;;;;;;6.75;6.00;;;;;25.69;39.64;100874.09;5060740;28;45398;-64
2021/08/04 10:56:32;;;;;;;;;7.75;7.00;;;;;25.60;40.46;100875.72;5059858;28;45261;-66
2021/08/04 10:59:09;;;;;;;;;9.50;7.00;;;;;25.46;40.31;100882.28;5061573;27;45383;-66
2021/08/04 11:01:49;;;;;;;;;8.00;7.50;;;;;25.37;40.27;100877.75;5061549;28;45482;-64
2021/08/04 11:04:39;;;;;;;;;7.00;7.00;;;;;25.32;40.77;100882.63;5057742;28;45557;-65
2021/08/04 11:07:07;;;;;;;;;11.25;9.50;;;;;25.30;41.27;100878.41;5036606;28;45378;-61
2021/08/04 11:09:48;;;;;;;;;12.75;9.25;;;;;25.25;40.66;100881.50;5053214;28;45346;-66
2021/08/04 11:12:19;;;;;;;;;8.00;7.50;;;;;25.26;41.10;100882.31;5052106;28;45169;-66
2021/08/04 11:14:46;;;;;;;;;5.75;5.75;;;;;25.33;41.95;100888.78;5052760;28;45484;-67